sensor_id;sensor_type;location;lat;lon;timestamp;P1;durP1;ratioP1;P2;durP2;ratioP2
44810;SDS011;30526;52.184;4.476;2022-08-21T00:00:47;20.17;;;6.10;;
44810;SDS011;30526;52.184;4.476;2022-08-21T00:03:14;11.43;;;4.28;;
44810;SDS011;30526;52.184;4.476;2022-08-21T00:05:41;6.70;;;3.67;;
44810;SDS011;30526;52.184;4.476;2022-08-21T00:08:08;7.88;;;3.45;;
44810;SDS011;30526;52.184;4.476;2022-08-21T00:10:34;13.77;;;3.88;;
44810;SDS011;30526;52.184;4.476;2022-08-21T00:13:01;13.93;;;3.83;;
44810;SDS011;30526;52.184;4.476;2022-08-21T00:15:28;8.77;;;2.72;;
44810;SDS011;30526;52.184;4.476;2022-08-21T00:17:55;11.48;;;4.00;;
44810;SDS011;30526;52.184;4.476;2022-08-21T00:20:21;14.50;;;3.93;;
44810;SDS011;30526;52.184;4.476;2022-08-21T00:22:48;9.13;;;2.97;;
44810;SDS011;30526;52.184;4.476;2022-08-21T00:25:15;13.80;;;3.43;;
44810;SDS011;30526;52.184;4.476;2022-08-21T00:27:41;10.63;;;3.23;;
44810;SDS011;30526;52.184;4.476;2022-08-21T00:30:08;10.55;;;3.38;;
44810;SDS011;30526;52.184;4.476;2022-08-21T00:32:36;11.30;;;3.30;;
44810;SDS011;30526;52.184;4.476;2022-08-21T00:35:03;8.07;;;3.35;;
44810;SDS011;30526;52.184;4.476;2022-08-21T00:37:29;6.22;;;2.47;;
44810;SDS011;30526;52.184;4.476;2022-08-21T00:39:55;6.40;;;2.90;;
44810;SDS011;30526;52.184;4.476;2022-08-21T00:42:21;10.07;;;4.15;;
44810;SDS011;30526;52.184;4.476;2022-08-21T00:44:48;11.90;;;3.50;;
44810;SDS011;30526;52.184;4.476;2022-08-21T00:47:15;6.95;;;2.30;;
44810;SDS011;30526;52.184;4.476;2022-08-21T00:49:42;11.02;;;3.88;;
44810;SDS011;30526;52.184;4.476;2022-08-21T00:52:13;11.85;;;3.88;;
44810;SDS011;30526;52.184;4.476;2022-08-21T00:54:40;9.73;;;2.78;;
44810;SDS011;30526;52.184;4.476;2022-08-21T00:57:09;14.23;;;3.42;;
44810;SDS011;30526;52.184;4.476;2022-08-21T00:59:36;11.05;;;3.35;;
44810;SDS011;30526;52.184;4.476;2022-08-21T01:02:03;8.95;;;2.50;;
44810;SDS011;30526;52.184;4.476;2022-08-21T01:04:29;11.30;;;3.65;;
44810;SDS011;30526;52.184;4.476;2022-08-21T01:06:56;10.80;;;2.90;;
44810;SDS011;30526;52.184;4.476;2022-08-21T01:09:22;8.10;;;2.80;;
44810;SDS011;30526;52.184;4.476;2022-08-21T01:11:48;9.27;;;3.20;;
44810;SDS011;30526;52.184;4.476;2022-08-21T01:14:14;7.72;;;2.17;;
44810;SDS011;30526;52.184;4.476;2022-08-21T01:16:45;10.95;;;2.83;;
44810;SDS011;30526;52.184;4.476;2022-08-21T01:19:12;9.60;;;2.83;;
44810;SDS011;30526;52.184;4.476;2022-08-21T01:21:39;9.10;;;2.67;;
44810;SDS011;30526;52.184;4.476;2022-08-21T01:24:05;10.05;;;2.72;;
44810;SDS011;30526;52.184;4.476;2022-08-21T01:26:32;10.05;;;2.42;;
44810;SDS011;30526;52.184;4.476;2022-08-21T01:29:05;9.57;;;2.40;;
44810;SDS011;30526;52.184;4.476;2022-08-21T01:31:33;9.32;;;2.42;;
44810;SDS011;30526;52.184;4.476;2022-08-21T01:33:59;13.65;;;2.42;;
44810;SDS011;30526;52.184;4.476;2022-08-21T01:36:25;14.90;;;3.10;;
44810;SDS011;30526;52.184;4.476;2022-08-21T01:38:51;8.75;;;3.10;;
44810;SDS011;30526;52.184;4.476;2022-08-21T01:41:18;8.38;;;2.25;;
44810;SDS011;30526;52.184;4.476;2022-08-21T01:43:44;14.85;;;2.58;;
44810;SDS011;30526;52.184;4.476;2022-08-21T01:46:10;7.35;;;2.75;;
44810;SDS011;30526;52.184;4.476;2022-08-21T01:48:37;8.80;;;2.50;;
44810;SDS011;30526;52.184;4.476;2022-08-21T01:51:03;11.60;;;2.78;;
44810;SDS011;30526;52.184;4.476;2022-08-21T01:53:30;11.63;;;2.85;;
44810;SDS011;30526;52.184;4.476;2022-08-21T01:55:56;9.68;;;2.42;;
44810;SDS011;30526;52.184;4.476;2022-08-21T01:58:22;7.75;;;2.40;;
44810;SDS011;30526;52.184;4.476;2022-08-21T02:00:48;14.52;;;3.20;;
44810;SDS011;30526;52.184;4.476;2022-08-21T02:03:14;11.25;;;2.85;;
44810;SDS011;30526;52.184;4.476;2022-08-21T02:05:40;15.15;;;3.42;;
44810;SDS011;30526;52.184;4.476;2022-08-21T02:08:06;11.98;;;3.00;;
44810;SDS011;30526;52.184;4.476;2022-08-21T02:10:33;8.82;;;2.50;;
44810;SDS011;30526;52.184;4.476;2022-08-21T02:12:59;14.00;;;2.92;;
44810;SDS011;30526;52.184;4.476;2022-08-21T02:15:26;8.97;;;2.80;;
44810;SDS011;30526;52.184;4.476;2022-08-21T02:17:55;7.35;;;2.72;;
44810;SDS011;30526;52.184;4.476;2022-08-21T02:20:23;8.10;;;2.53;;
44810;SDS011;30526;52.184;4.476;2022-08-21T02:22:50;13.63;;;3.20;;
44810;SDS011;30526;52.184;4.476;2022-08-21T02:25:17;11.85;;;3.00;;
44810;SDS011;30526;52.184;4.476;2022-08-21T02:27:44;9.18;;;3.08;;
44810;SDS011;30526;52.184;4.476;2022-08-21T02:30:14;22.10;;;3.28;;
44810;SDS011;30526;52.184;4.476;2022-08-21T02:32:40;12.02;;;2.83;;
44810;SDS011;30526;52.184;4.476;2022-08-21T02:35:07;10.25;;;2.80;;
44810;SDS011;30526;52.184;4.476;2022-08-21T02:37:34;9.68;;;2.83;;
44810;SDS011;30526;52.184;4.476;2022-08-21T02:40:00;8.48;;;2.53;;
44810;SDS011;30526;52.184;4.476;2022-08-21T02:42:26;10.35;;;2.67;;
44810;SDS011;30526;52.184;4.476;2022-08-21T02:44:52;9.18;;;2.78;;
44810;SDS011;30526;52.184;4.476;2022-08-21T02:47:18;16.55;;;2.72;;
44810;SDS011;30526;52.184;4.476;2022-08-21T02:49:44;8.98;;;2.67;;
44810;SDS011;30526;52.184;4.476;2022-08-21T02:52:10;12.00;;;2.60;;
44810;SDS011;30526;52.184;4.476;2022-08-21T02:54:36;10.20;;;2.60;;
44810;SDS011;30526;52.184;4.476;2022-08-21T02:57:02;9.93;;;2.80;;
44810;SDS011;30526;52.184;4.476;2022-08-21T02:59:28;8.05;;;2.28;;
44810;SDS011;30526;52.184;4.476;2022-08-21T03:01:54;12.65;;;3.15;;
44810;SDS011;30526;52.184;4.476;2022-08-21T03:04:20;9.73;;;2.45;;
44810;SDS011;30526;52.184;4.476;2022-08-21T03:06:47;10.68;;;2.55;;
44810;SDS011;30526;52.184;4.476;2022-08-21T03:09:13;13.82;;;3.17;;
44810;SDS011;30526;52.184;4.476;2022-08-21T03:11:39;9.88;;;2.50;;
44810;SDS011;30526;52.184;4.476;2022-08-21T03:14:05;14.20;;;3.28;;
44810;SDS011;30526;52.184;4.476;2022-08-21T03:16:31;11.82;;;2.80;;
44810;SDS011;30526;52.184;4.476;2022-08-21T03:18:57;10.77;;;2.92;;
44810;SDS011;30526;52.184;4.476;2022-08-21T03:21:24;8.70;;;2.45;;
44810;SDS011;30526;52.184;4.476;2022-08-21T03:23:50;9.88;;;3.00;;
44810;SDS011;30526;52.184;4.476;2022-08-21T03:26:18;10.27;;;3.00;;
44810;SDS011;30526;52.184;4.476;2022-08-21T03:28:44;8.88;;;2.83;;
44810;SDS011;30526;52.184;4.476;2022-08-21T03:31:10;8.68;;;3.45;;
44810;SDS011;30526;52.184;4.476;2022-08-21T03:33:36;12.23;;;2.80;;
44810;SDS011;30526;52.184;4.476;2022-08-21T03:36:04;9.50;;;2.67;;
44810;SDS011;30526;52.184;4.476;2022-08-21T03:38:31;12.23;;;3.40;;
44810;SDS011;30526;52.184;4.476;2022-08-21T03:40:58;5.57;;;3.10;;
44810;SDS011;30526;52.184;4.476;2022-08-21T03:43:25;6.63;;;2.60;;
44810;SDS011;30526;52.184;4.476;2022-08-21T03:45:51;8.77;;;2.23;;
44810;SDS011;30526;52.184;4.476;2022-08-21T03:48:17;12.23;;;3.20;;
44810;SDS011;30526;52.184;4.476;2022-08-21T03:50:43;11.70;;;3.00;;
44810;SDS011;30526;52.184;4.476;2022-08-21T03:53:12;10.10;;;2.33;;
44810;SDS011;30526;52.184;4.476;2022-08-21T03:55:38;9.00;;;3.22;;
44810;SDS011;30526;52.184;4.476;2022-08-21T03:58:04;12.52;;;2.90;;
44810;SDS011;30526;52.184;4.476;2022-08-21T04:00:30;8.93;;;2.83;;
44810;SDS011;30526;52.184;4.476;2022-08-21T04:02:56;13.43;;;3.90;;
44810;SDS011;30526;52.184;4.476;2022-08-21T04:05:22;12.35;;;3.15;;
44810;SDS011;30526;52.184;4.476;2022-08-21T04:07:59;8.05;;;3.13;;
44810;SDS011;30526;52.184;4.476;2022-08-21T04:10:26;8.27;;;2.88;;
44810;SDS011;30526;52.184;4.476;2022-08-21T04:12:53;12.05;;;3.08;;
44810;SDS011;30526;52.184;4.476;2022-08-21T04:17:46;7.63;;;2.80;;
44810;SDS011;30526;52.184;4.476;2022-08-21T04:20:13;7.05;;;2.90;;
44810;SDS011;30526;52.184;4.476;2022-08-21T04:22:39;12.73;;;3.22;;
44810;SDS011;30526;52.184;4.476;2022-08-21T04:25:05;11.30;;;3.65;;
44810;SDS011;30526;52.184;4.476;2022-08-21T04:27:32;8.80;;;3.03;;
44810;SDS011;30526;52.184;4.476;2022-08-21T04:29:58;12.50;;;3.90;;
44810;SDS011;30526;52.184;4.476;2022-08-21T04:32:25;7.75;;;2.47;;
44810;SDS011;30526;52.184;4.476;2022-08-21T04:35:05;16.30;;;3.58;;
44810;SDS011;30526;52.184;4.476;2022-08-21T04:37:31;9.90;;;3.28;;
44810;SDS011;30526;52.184;4.476;2022-08-21T04:39:57;16.13;;;3.53;;
44810;SDS011;30526;52.184;4.476;2022-08-21T04:42:24;12.00;;;3.72;;
44810;SDS011;30526;52.184;4.476;2022-08-21T04:44:50;16.73;;;3.70;;
44810;SDS011;30526;52.184;4.476;2022-08-21T04:47:17;9.38;;;3.15;;
44810;SDS011;30526;52.184;4.476;2022-08-21T04:49:43;13.10;;;3.50;;
44810;SDS011;30526;52.184;4.476;2022-08-21T04:52:10;12.68;;;3.80;;
44810;SDS011;30526;52.184;4.476;2022-08-21T04:54:37;9.93;;;2.92;;
44810;SDS011;30526;52.184;4.476;2022-08-21T04:57:05;21.58;;;4.00;;
44810;SDS011;30526;52.184;4.476;2022-08-21T04:59:36;14.27;;;4.22;;
44810;SDS011;30526;52.184;4.476;2022-08-21T05:02:02;12.45;;;4.30;;
44810;SDS011;30526;52.184;4.476;2022-08-21T05:04:29;12.05;;;3.45;;
44810;SDS011;30526;52.184;4.476;2022-08-21T05:06:57;7.80;;;2.53;;
44810;SDS011;30526;52.184;4.476;2022-08-21T05:09:24;12.15;;;3.88;;
44810;SDS011;30526;52.184;4.476;2022-08-21T05:11:50;18.63;;;4.10;;
44810;SDS011;30526;52.184;4.476;2022-08-21T05:14:17;12.38;;;3.90;;
44810;SDS011;30526;52.184;4.476;2022-08-21T05:16:44;9.90;;;4.03;;
44810;SDS011;30526;52.184;4.476;2022-08-21T05:19:10;11.90;;;4.35;;
44810;SDS011;30526;52.184;4.476;2022-08-21T05:21:38;11.07;;;3.77;;
44810;SDS011;30526;52.184;4.476;2022-08-21T05:24:04;9.43;;;4.03;;
44810;SDS011;30526;52.184;4.476;2022-08-21T05:26:30;11.20;;;4.40;;
44810;SDS011;30526;52.184;4.476;2022-08-21T05:28:56;12.25;;;3.85;;
44810;SDS011;30526;52.184;4.476;2022-08-21T05:31:22;17.13;;;4.65;;
44810;SDS011;30526;52.184;4.476;2022-08-21T05:33:49;19.40;;;4.55;;
44810;SDS011;30526;52.184;4.476;2022-08-21T05:36:15;16.55;;;4.82;;
44810;SDS011;30526;52.184;4.476;2022-08-21T05:38:42;12.88;;;3.65;;
44810;SDS011;30526;52.184;4.476;2022-08-21T05:41:08;13.48;;;4.65;;
44810;SDS011;30526;52.184;4.476;2022-08-21T05:43:35;15.07;;;4.38;;
44810;SDS011;30526;52.184;4.476;2022-08-21T05:46:04;13.25;;;5.00;;
44810;SDS011;30526;52.184;4.476;2022-08-21T05:48:31;14.88;;;4.85;;
44810;SDS011;30526;52.184;4.476;2022-08-21T05:50:57;14.57;;;5.07;;
44810;SDS011;30526;52.184;4.476;2022-08-21T05:53:24;14.35;;;4.57;;
44810;SDS011;30526;52.184;4.476;2022-08-21T05:55:50;13.88;;;4.85;;
44810;SDS011;30526;52.184;4.476;2022-08-21T05:58:17;18.87;;;5.10;;
44810;SDS011;30526;52.184;4.476;2022-08-21T06:00:44;9.85;;;2.97;;
44810;SDS011;30526;52.184;4.476;2022-08-21T06:03:13;16.80;;;4.35;;
44810;SDS011;30526;52.184;4.476;2022-08-21T06:05:40;11.82;;;3.95;;
44810;SDS011;30526;52.184;4.476;2022-08-21T06:08:06;12.18;;;4.18;;
44810;SDS011;30526;52.184;4.476;2022-08-21T06:10:32;17.70;;;4.78;;
44810;SDS011;30526;52.184;4.476;2022-08-21T06:12:58;22.25;;;5.13;;
44810;SDS011;30526;52.184;4.476;2022-08-21T06:15:24;14.88;;;4.30;;
44810;SDS011;30526;52.184;4.476;2022-08-21T06:17:51;15.45;;;4.72;;
44810;SDS011;30526;52.184;4.476;2022-08-21T06:20:17;20.05;;;4.60;;
44810;SDS011;30526;52.184;4.476;2022-08-21T06:22:43;16.55;;;4.55;;
44810;SDS011;30526;52.184;4.476;2022-08-21T06:25:09;11.02;;;4.15;;
44810;SDS011;30526;52.184;4.476;2022-08-21T06:27:35;13.30;;;4.72;;
44810;SDS011;30526;52.184;4.476;2022-08-21T06:30:02;15.05;;;4.90;;
44810;SDS011;30526;52.184;4.476;2022-08-21T06:32:28;9.65;;;4.07;;
44810;SDS011;30526;52.184;4.476;2022-08-21T06:34:54;23.48;;;6.05;;
44810;SDS011;30526;52.184;4.476;2022-08-21T06:37:20;17.75;;;4.70;;
44810;SDS011;30526;52.184;4.476;2022-08-21T06:39:47;9.68;;;3.72;;
44810;SDS011;30526;52.184;4.476;2022-08-21T06:42:16;11.63;;;4.15;;
44810;SDS011;30526;52.184;4.476;2022-08-21T06:44:42;16.48;;;4.35;;
44810;SDS011;30526;52.184;4.476;2022-08-21T06:47:09;12.00;;;4.00;;
44810;SDS011;30526;52.184;4.476;2022-08-21T06:49:35;20.58;;;4.32;;
44810;SDS011;30526;52.184;4.476;2022-08-21T06:52:01;15.40;;;4.00;;
44810;SDS011;30526;52.184;4.476;2022-08-21T06:54:27;13.50;;;4.20;;
44810;SDS011;30526;52.184;4.476;2022-08-21T06:56:53;13.02;;;3.78;;
44810;SDS011;30526;52.184;4.476;2022-08-21T06:59:19;13.25;;;3.95;;
44810;SDS011;30526;52.184;4.476;2022-08-21T07:01:45;12.77;;;4.25;;
44810;SDS011;30526;52.184;4.476;2022-08-21T07:04:11;16.92;;;4.80;;
44810;SDS011;30526;52.184;4.476;2022-08-21T07:06:37;14.23;;;3.83;;
44810;SDS011;30526;52.184;4.476;2022-08-21T07:09:03;13.85;;;3.65;;
44810;SDS011;30526;52.184;4.476;2022-08-21T07:11:29;21.45;;;5.38;;
44810;SDS011;30526;52.184;4.476;2022-08-21T07:13:55;10.70;;;3.60;;
44810;SDS011;30526;52.184;4.476;2022-08-21T07:16:22;11.32;;;3.53;;
44810;SDS011;30526;52.184;4.476;2022-08-21T07:18:48;12.75;;;3.92;;
44810;SDS011;30526;52.184;4.476;2022-08-21T07:21:14;14.75;;;4.30;;
44810;SDS011;30526;52.184;4.476;2022-08-21T07:23:42;11.75;;;2.95;;
44810;SDS011;30526;52.184;4.476;2022-08-21T07:28:34;11.25;;;3.08;;
44810;SDS011;30526;52.184;4.476;2022-08-21T07:31:01;14.30;;;3.75;;
44810;SDS011;30526;52.184;4.476;2022-08-21T07:33:28;14.00;;;3.38;;
44810;SDS011;30526;52.184;4.476;2022-08-21T07:38:21;12.63;;;3.10;;
44810;SDS011;30526;52.184;4.476;2022-08-21T07:40:47;10.48;;;3.30;;
44810;SDS011;30526;52.184;4.476;2022-08-21T07:43:14;12.73;;;3.50;;
44810;SDS011;30526;52.184;4.476;2022-08-21T07:45:43;13.05;;;3.63;;
44810;SDS011;30526;52.184;4.476;2022-08-21T07:48:09;10.63;;;3.35;;
44810;SDS011;30526;52.184;4.476;2022-08-21T07:50:35;14.18;;;3.53;;
44810;SDS011;30526;52.184;4.476;2022-08-21T07:53:01;10.95;;;3.05;;
44810;SDS011;30526;52.184;4.476;2022-08-21T07:55:27;17.77;;;3.90;;
44810;SDS011;30526;52.184;4.476;2022-08-21T07:57:53;15.13;;;3.30;;
44810;SDS011;30526;52.184;4.476;2022-08-21T08:00:21;13.50;;;4.05;;
44810;SDS011;30526;52.184;4.476;2022-08-21T08:02:49;21.33;;;4.95;;
44810;SDS011;30526;52.184;4.476;2022-08-21T08:05:18;10.13;;;3.17;;
44810;SDS011;30526;52.184;4.476;2022-08-21T08:10:10;19.58;;;3.53;;
44810;SDS011;30526;52.184;4.476;2022-08-21T08:12:37;14.95;;;3.15;;
44810;SDS011;30526;52.184;4.476;2022-08-21T08:15:04;11.77;;;4.15;;
44810;SDS011;30526;52.184;4.476;2022-08-21T08:17:30;7.25;;;2.15;;
44810;SDS011;30526;52.184;4.476;2022-08-21T08:19:57;10.05;;;3.30;;
44810;SDS011;30526;52.184;4.476;2022-08-21T08:22:25;16.00;;;3.35;;
44810;SDS011;30526;52.184;4.476;2022-08-21T08:24:51;13.43;;;3.38;;
44810;SDS011;30526;52.184;4.476;2022-08-21T08:27:17;16.13;;;4.10;;
44810;SDS011;30526;52.184;4.476;2022-08-21T08:29:44;11.97;;;3.53;;
44810;SDS011;30526;52.184;4.476;2022-08-21T08:32:10;13.65;;;3.70;;
44810;SDS011;30526;52.184;4.476;2022-08-21T08:34:37;12.32;;;3.47;;
44810;SDS011;30526;52.184;4.476;2022-08-21T08:37:04;10.68;;;3.38;;
44810;SDS011;30526;52.184;4.476;2022-08-21T08:39:30;10.68;;;3.70;;
44810;SDS011;30526;52.184;4.476;2022-08-21T08:42:08;13.70;;;3.22;;
44810;SDS011;30526;52.184;4.476;2022-08-21T08:44:35;11.95;;;3.08;;
44810;SDS011;30526;52.184;4.476;2022-08-21T08:47:01;10.10;;;3.05;;
44810;SDS011;30526;52.184;4.476;2022-08-21T08:51:57;9.43;;;2.88;;
44810;SDS011;30526;52.184;4.476;2022-08-21T08:54:28;14.30;;;3.22;;
44810;SDS011;30526;52.184;4.476;2022-08-21T08:57:00;13.57;;;2.70;;
44810;SDS011;30526;52.184;4.476;2022-08-21T08:59:31;13.55;;;2.47;;
44810;SDS011;30526;52.184;4.476;2022-08-21T09:02:00;13.57;;;2.50;;
44810;SDS011;30526;52.184;4.476;2022-08-21T09:04:26;9.50;;;2.25;;
44810;SDS011;30526;52.184;4.476;2022-08-21T09:17:02;9.70;;;2.33;;
44810;SDS011;30526;52.184;4.476;2022-08-21T09:27:22;6.03;;;1.65;;
44810;SDS011;30526;52.184;4.476;2022-08-21T09:29:49;6.68;;;2.35;;
44810;SDS011;30526;52.184;4.476;2022-08-21T09:32:17;11.27;;;1.90;;
44810;SDS011;30526;52.184;4.476;2022-08-21T09:37:27;4.85;;;1.50;;
44810;SDS011;30526;52.184;4.476;2022-08-21T09:39:54;4.57;;;1.17;;
44810;SDS011;30526;52.184;4.476;2022-08-21T09:42:25;7.90;;;1.83;;
44810;SDS011;30526;52.184;4.476;2022-08-21T09:45:04;8.15;;;1.45;;
44810;SDS011;30526;52.184;4.476;2022-08-21T09:47:31;8.65;;;1.70;;
44810;SDS011;30526;52.184;4.476;2022-08-21T09:50:06;4.18;;;1.63;;
44810;SDS011;30526;52.184;4.476;2022-08-21T09:52:32;10.00;;;1.73;;
44810;SDS011;30526;52.184;4.476;2022-08-21T09:54:58;3.67;;;1.33;;
44810;SDS011;30526;52.184;4.476;2022-08-21T09:57:26;6.68;;;1.60;;
44810;SDS011;30526;52.184;4.476;2022-08-21T10:02:45;4.70;;;1.38;;
44810;SDS011;30526;52.184;4.476;2022-08-21T10:05:18;4.38;;;1.40;;
44810;SDS011;30526;52.184;4.476;2022-08-21T10:07:45;10.40;;;1.40;;
44810;SDS011;30526;52.184;4.476;2022-08-21T10:10:15;12.45;;;2.22;;
44810;SDS011;30526;52.184;4.476;2022-08-21T10:12:44;7.28;;;1.70;;
44810;SDS011;30526;52.184;4.476;2022-08-21T10:18:13;6.47;;;2.20;;
44810;SDS011;30526;52.184;4.476;2022-08-21T10:23:28;7.45;;;1.40;;
44810;SDS011;30526;52.184;4.476;2022-08-21T10:25:57;2.42;;;1.15;;
44810;SDS011;30526;52.184;4.476;2022-08-21T10:28:29;8.32;;;1.63;;
44810;SDS011;30526;52.184;4.476;2022-08-21T10:31:14;7.13;;;1.60;;
44810;SDS011;30526;52.184;4.476;2022-08-21T10:36:44;4.38;;;1.60;;
44810;SDS011;30526;52.184;4.476;2022-08-21T10:49:22;4.30;;;1.55;;
44810;SDS011;30526;52.184;4.476;2022-08-21T10:57:09;9.23;;;1.77;;
44810;SDS011;30526;52.184;4.476;2022-08-21T10:59:52;9.52;;;2.05;;
44810;SDS011;30526;52.184;4.476;2022-08-21T11:02:21;8.32;;;1.65;;
44810;SDS011;30526;52.184;4.476;2022-08-21T11:09:54;5.90;;;1.40;;
44810;SDS011;30526;52.184;4.476;2022-08-21T11:12:26;7.05;;;1.85;;
44810;SDS011;30526;52.184;4.476;2022-08-21T11:14:59;4.70;;;1.30;;
44810;SDS011;30526;52.184;4.476;2022-08-21T11:17:36;4.95;;;1.80;;
44810;SDS011;30526;52.184;4.476;2022-08-21T11:20:13;9.15;;;1.80;;
44810;SDS011;30526;52.184;4.476;2022-08-21T11:22:44;10.98;;;1.95;;
44810;SDS011;30526;52.184;4.476;2022-08-21T11:27:46;7.90;;;1.92;;
44810;SDS011;30526;52.184;4.476;2022-08-21T11:30:14;7.10;;;1.63;;
44810;SDS011;30526;52.184;4.476;2022-08-21T11:38:00;7.40;;;2.10;;
44810;SDS011;30526;52.184;4.476;2022-08-21T11:43:01;6.65;;;1.65;;
44810;SDS011;30526;52.184;4.476;2022-08-21T11:45:31;8.93;;;1.80;;
44810;SDS011;30526;52.184;4.476;2022-08-21T11:48:02;8.52;;;1.95;;
44810;SDS011;30526;52.184;4.476;2022-08-21T11:50:30;7.45;;;1.60;;
44810;SDS011;30526;52.184;4.476;2022-08-21T11:53:08;6.85;;;2.00;;
44810;SDS011;30526;52.184;4.476;2022-08-21T11:55:36;5.38;;;1.85;;
44810;SDS011;30526;52.184;4.476;2022-08-21T11:58:09;10.18;;;2.20;;
44810;SDS011;30526;52.184;4.476;2022-08-21T12:00:42;6.53;;;1.73;;
44810;SDS011;30526;52.184;4.476;2022-08-21T12:03:11;7.88;;;1.77;;
44810;SDS011;30526;52.184;4.476;2022-08-21T12:05:52;7.03;;;2.00;;
44810;SDS011;30526;52.184;4.476;2022-08-21T12:08:33;9.77;;;2.55;;
44810;SDS011;30526;52.184;4.476;2022-08-21T12:11:01;8.18;;;2.17;;
44810;SDS011;30526;52.184;4.476;2022-08-21T12:13:29;5.88;;;2.15;;
44810;SDS011;30526;52.184;4.476;2022-08-21T12:17:03;11.48;;;1.83;;
44810;SDS011;30526;52.184;4.476;2022-08-21T12:18:50;9.35;;;2.20;;
44810;SDS011;30526;52.184;4.476;2022-08-21T12:26:49;10.20;;;2.13;;
44810;SDS011;30526;52.184;4.476;2022-08-21T12:29:23;8.15;;;1.90;;
44810;SDS011;30526;52.184;4.476;2022-08-21T12:31:51;12.27;;;1.85;;
44810;SDS011;30526;52.184;4.476;2022-08-21T12:34:17;8.73;;;1.88;;
44810;SDS011;30526;52.184;4.476;2022-08-21T12:36:46;11.90;;;2.35;;
44810;SDS011;30526;52.184;4.476;2022-08-21T12:39:15;6.93;;;1.80;;
44810;SDS011;30526;52.184;4.476;2022-08-21T12:41:49;8.38;;;2.10;;
44810;SDS011;30526;52.184;4.476;2022-08-21T12:44:20;6.65;;;1.98;;
44810;SDS011;30526;52.184;4.476;2022-08-21T12:46:51;8.52;;;1.75;;
44810;SDS011;30526;52.184;4.476;2022-08-21T12:49:26;6.85;;;1.65;;
44810;SDS011;30526;52.184;4.476;2022-08-21T12:54:48;6.13;;;1.92;;
44810;SDS011;30526;52.184;4.476;2022-08-21T12:57:19;5.03;;;1.53;;
44810;SDS011;30526;52.184;4.476;2022-08-21T12:59:46;7.85;;;1.80;;
44810;SDS011;30526;52.184;4.476;2022-08-21T13:02:18;10.27;;;1.88;;
44810;SDS011;30526;52.184;4.476;2022-08-21T13:04:45;7.05;;;1.52;;
44810;SDS011;30526;52.184;4.476;2022-08-21T13:07:13;7.60;;;1.65;;
44810;SDS011;30526;52.184;4.476;2022-08-21T13:09:46;6.28;;;1.55;;
44810;SDS011;30526;52.184;4.476;2022-08-21T13:12:13;10.35;;;1.67;;
44810;SDS011;30526;52.184;4.476;2022-08-21T13:14:42;8.18;;;2.03;;
44810;SDS011;30526;52.184;4.476;2022-08-21T13:17:09;7.20;;;1.80;;
44810;SDS011;30526;52.184;4.476;2022-08-21T13:19:36;6.78;;;1.48;;
44810;SDS011;30526;52.184;4.476;2022-08-21T13:24:30;6.20;;;1.80;;
44810;SDS011;30526;52.184;4.476;2022-08-21T13:26:58;10.45;;;1.52;;
44810;SDS011;30526;52.184;4.476;2022-08-21T13:29:28;8.32;;;1.70;;
44810;SDS011;30526;52.184;4.476;2022-08-21T13:32:01;4.25;;;1.52;;
44810;SDS011;30526;52.184;4.476;2022-08-21T13:34:33;8.68;;;2.15;;
44810;SDS011;30526;52.184;4.476;2022-08-21T13:37:02;5.90;;;1.50;;
44810;SDS011;30526;52.184;4.476;2022-08-21T13:39:28;8.88;;;2.10;;
44810;SDS011;30526;52.184;4.476;2022-08-21T13:41:55;5.82;;;1.55;;
44810;SDS011;30526;52.184;4.476;2022-08-21T13:44:23;7.75;;;1.63;;
44810;SDS011;30526;52.184;4.476;2022-08-21T13:46:52;8.35;;;1.88;;
44810;SDS011;30526;52.184;4.476;2022-08-21T13:49:20;7.20;;;2.00;;
44810;SDS011;30526;52.184;4.476;2022-08-21T13:51:48;8.80;;;1.70;;
44810;SDS011;30526;52.184;4.476;2022-08-21T13:54:21;8.02;;;1.98;;
44810;SDS011;30526;52.184;4.476;2022-08-21T13:56:47;6.68;;;1.67;;
44810;SDS011;30526;52.184;4.476;2022-08-21T13:59:23;10.43;;;2.25;;
44810;SDS011;30526;52.184;4.476;2022-08-21T14:01:54;14.05;;;2.38;;
44810;SDS011;30526;52.184;4.476;2022-08-21T14:04:31;7.22;;;1.77;;
44810;SDS011;30526;52.184;4.476;2022-08-21T14:06:58;7.05;;;2.03;;
44810;SDS011;30526;52.184;4.476;2022-08-21T14:09:32;7.17;;;1.80;;
44810;SDS011;30526;52.184;4.476;2022-08-21T14:12:01;6.05;;;1.60;;
44810;SDS011;30526;52.184;4.476;2022-08-21T14:14:31;7.32;;;2.05;;
44810;SDS011;30526;52.184;4.476;2022-08-21T14:16:59;7.38;;;1.90;;
44810;SDS011;30526;52.184;4.476;2022-08-21T14:19:27;7.60;;;1.83;;
44810;SDS011;30526;52.184;4.476;2022-08-21T14:21:54;6.63;;;1.88;;
44810;SDS011;30526;52.184;4.476;2022-08-21T14:26:51;10.80;;;1.90;;
44810;SDS011;30526;52.184;4.476;2022-08-21T14:29:18;7.43;;;1.88;;
44810;SDS011;30526;52.184;4.476;2022-08-21T14:31:57;9.27;;;2.53;;
44810;SDS011;30526;52.184;4.476;2022-08-21T14:34:24;10.70;;;2.38;;
44810;SDS011;30526;52.184;4.476;2022-08-21T14:36:50;6.35;;;1.77;;
44810;SDS011;30526;52.184;4.476;2022-08-21T14:39:16;10.97;;;2.10;;
44810;SDS011;30526;52.184;4.476;2022-08-21T14:41:43;8.27;;;2.03;;
44810;SDS011;30526;52.184;4.476;2022-08-21T14:44:10;4.78;;;1.88;;
44810;SDS011;30526;52.184;4.476;2022-08-21T14:46:37;9.77;;;2.10;;
44810;SDS011;30526;52.184;4.476;2022-08-21T14:49:03;5.50;;;1.95;;
44810;SDS011;30526;52.184;4.476;2022-08-21T14:51:29;10.73;;;2.35;;
44810;SDS011;30526;52.184;4.476;2022-08-21T14:53:55;5.45;;;2.10;;
44810;SDS011;30526;52.184;4.476;2022-08-21T14:56:21;5.45;;;2.03;;
44810;SDS011;30526;52.184;4.476;2022-08-21T14:58:50;5.20;;;1.85;;
44810;SDS011;30526;52.184;4.476;2022-08-21T15:01:17;6.47;;;2.00;;
44810;SDS011;30526;52.184;4.476;2022-08-21T15:03:44;6.68;;;1.70;;
44810;SDS011;30526;52.184;4.476;2022-08-21T15:06:11;6.05;;;2.08;;
44810;SDS011;30526;52.184;4.476;2022-08-21T15:08:37;6.85;;;1.90;;
44810;SDS011;30526;52.184;4.476;2022-08-21T15:11:04;12.27;;;2.13;;
44810;SDS011;30526;52.184;4.476;2022-08-21T15:13:31;7.40;;;1.90;;
44810;SDS011;30526;52.184;4.476;2022-08-21T15:15:57;10.93;;;2.33;;
44810;SDS011;30526;52.184;4.476;2022-08-21T15:18:25;6.32;;;2.05;;
44810;SDS011;30526;52.184;4.476;2022-08-21T15:20:51;6.93;;;2.15;;
44810;SDS011;30526;52.184;4.476;2022-08-21T15:23:17;9.55;;;2.40;;
44810;SDS011;30526;52.184;4.476;2022-08-21T15:25:44;9.77;;;2.47;;
44810;SDS011;30526;52.184;4.476;2022-08-21T15:30:37;5.63;;;1.77;;
44810;SDS011;30526;52.184;4.476;2022-08-21T15:35:29;5.45;;;1.88;;
44810;SDS011;30526;52.184;4.476;2022-08-21T15:37:55;7.50;;;1.60;;
44810;SDS011;30526;52.184;4.476;2022-08-21T15:40:21;9.38;;;2.30;;
44810;SDS011;30526;52.184;4.476;2022-08-21T15:42:47;7.93;;;1.88;;
44810;SDS011;30526;52.184;4.476;2022-08-21T15:45:17;9.20;;;2.28;;
44810;SDS011;30526;52.184;4.476;2022-08-21T15:47:44;7.80;;;2.38;;
44810;SDS011;30526;52.184;4.476;2022-08-21T15:50:11;9.35;;;2.53;;
44810;SDS011;30526;52.184;4.476;2022-08-21T15:52:37;4.75;;;1.80;;
44810;SDS011;30526;52.184;4.476;2022-08-21T15:55:05;10.73;;;2.47;;
44810;SDS011;30526;52.184;4.476;2022-08-21T15:57:31;10.60;;;2.25;;
44810;SDS011;30526;52.184;4.476;2022-08-21T15:59:58;8.43;;;2.23;;
44810;SDS011;30526;52.184;4.476;2022-08-21T16:02:30;9.25;;;1.80;;
44810;SDS011;30526;52.184;4.476;2022-08-21T16:04:57;8.93;;;2.25;;
44810;SDS011;30526;52.184;4.476;2022-08-21T16:07:23;9.52;;;1.70;;
44810;SDS011;30526;52.184;4.476;2022-08-21T16:12:50;5.03;;;1.67;;
44810;SDS011;30526;52.184;4.476;2022-08-21T16:15:08;8.18;;;1.95;;
44810;SDS011;30526;52.184;4.476;2022-08-21T16:17:36;6.35;;;1.58;;
44810;SDS011;30526;52.184;4.476;2022-08-21T16:20:04;5.57;;;2.25;;